sensor_id;sensor_type;location;lat;lon;timestamp;pressure;altitude;pressure_sealevel;temperature;humidity
53659;BME280;41524;35.624;139.698;2023-02-04T00:00:20;101749.00;;;6.06;32.90
53659;BME280;41524;35.624;139.698;2023-02-04T00:05:17;101731.00;;;10.88;28.01
53659;BME280;41524;35.624;139.698;2023-02-04T00:10:11;101733.00;;;10.97;25.17
53659;BME280;41524;35.624;139.698;2023-02-04T00:15:11;101740.00;;;4.75;31.99
53659;BME280;41524;35.624;139.698;2023-02-04T00:20:16;101722.00;;;8.75;28.60
53659;BME280;41524;35.624;139.698;2023-02-04T00:25:12;101714.00;;;12.78;24.94
53659;BME280;41524;35.624;139.698;2023-02-04T00:30:12;101701.00;;;9.79;26.68
53659;BME280;41524;35.624;139.698;2023-02-04T00:35:15;101711.00;;;9.02;27.01
53659;BME280;41524;35.624;139.698;2023-02-04T00:40:12;101706.00;;;8.67;28.04
53659;BME280;41524;35.624;139.698;2023-02-04T00:45:16;101700.00;;;8.32;29.09
53659;BME280;41524;35.624;139.698;2023-02-04T00:50:17;101701.00;;;7.37;29.87
53659;BME280;41524;35.624;139.698;2023-02-04T00:55:20;101701.00;;;8.21;29.03
53659;BME280;41524;35.624;139.698;2023-02-04T01:00:14;101703.00;;;8.76;28.20
53659;BME280;41524;35.624;139.698;2023-02-04T01:05:11;101703.00;;;8.61;28.81
53659;BME280;41524;35.624;139.698;2023-02-04T01:10:11;101696.00;;;7.27;29.53
53659;BME280;41524;35.624;139.698;2023-02-04T01:15:12;101689.00;;;7.63;30.05
53659;BME280;41524;35.624;139.698;2023-02-04T01:20:12;101670.00;;;6.56;32.07
53659;BME280;41524;35.624;139.698;2023-02-04T01:25:11;101670.00;;;6.15;33.40
53659;BME280;41524;35.624;139.698;2023-02-04T01:30:17;101658.00;;;8.00;35.49
53659;BME280;41524;35.624;139.698;2023-02-04T01:35:11;101645.00;;;9.15;34.09
53659;BME280;41524;35.624;139.698;2023-02-04T01:40:15;101630.00;;;7.20;35.05
53659;BME280;41524;35.624;139.698;2023-02-04T01:45:18;101623.00;;;7.51;35.68
53659;BME280;41524;35.624;139.698;2023-02-04T01:50:12;101611.00;;;7.03;38.67
53659;BME280;41524;35.624;139.698;2023-02-04T01:55:19;101604.00;;;4.95;40.00
53659;BME280;41524;35.624;139.698;2023-02-04T02:00:17;101587.00;;;6.63;38.10
53659;BME280;41524;35.624;139.698;2023-02-04T02:05:14;101581.00;;;6.53;39.24
53659;BME280;41524;35.624;139.698;2023-02-04T02:10:18;101563.00;;;7.31;38.85
53659;BME280;41524;35.624;139.698;2023-02-04T02:15:11;101554.00;;;6.55;39.38
53659;BME280;41524;35.624;139.698;2023-02-04T02:25:12;101529.00;;;7.27;37.50
53659;BME280;41524;35.624;139.698;2023-02-04T02:30:11;101517.00;;;5.44;40.62
53659;BME280;41524;35.624;139.698;2023-02-04T02:35:10;101507.00;;;8.18;37.91
53659;BME280;41524;35.624;139.698;2023-02-04T02:40:12;101516.00;;;7.79;39.35
53659;BME280;41524;35.624;139.698;2023-02-04T02:45:21;101494.00;;;6.77;40.47
53659;BME280;41524;35.624;139.698;2023-02-04T02:50:15;101475.00;;;5.71;41.81
53659;BME280;41524;35.624;139.698;2023-02-04T02:55:18;101468.00;;;7.42;41.60
53659;BME280;41524;35.624;139.698;2023-02-04T03:00:19;101463.00;;;7.69;39.76
53659;BME280;41524;35.624;139.698;2023-02-04T03:05:12;101455.00;;;7.48;41.53
53659;BME280;41524;35.624;139.698;2023-02-04T03:10:11;101429.00;;;6.83;40.37
53659;BME280;41524;35.624;139.698;2023-02-04T03:15:11;101411.00;;;8.03;40.53
53659;BME280;41524;35.624;139.698;2023-02-04T03:20:11;101407.00;;;7.29;40.22
53659;BME280;41524;35.624;139.698;2023-02-04T03:25:16;101408.00;;;8.15;38.67
53659;BME280;41524;35.624;139.698;2023-02-04T03:30:11;101397.00;;;9.24;37.77
53659;BME280;41524;35.624;139.698;2023-02-04T03:35:11;101388.00;;;9.23;37.70
53659;BME280;41524;35.624;139.698;2023-02-04T03:40:16;101374.00;;;8.96;37.31
53659;BME280;41524;35.624;139.698;2023-02-04T03:45:11;101363.00;;;10.07;37.58
53659;BME280;41524;35.624;139.698;2023-02-04T03:50:22;101365.00;;;9.19;39.84
53659;BME280;41524;35.624;139.698;2023-02-04T03:55:11;101360.00;;;10.74;38.96
53659;BME280;41524;35.624;139.698;2023-02-04T04:00:21;101359.00;;;9.14;38.97
53659;BME280;41524;35.624;139.698;2023-02-04T04:05:10;101348.00;;;9.60;38.27
53659;BME280;41524;35.624;139.698;2023-02-04T04:10:12;101333.00;;;10.38;37.92
53659;BME280;41524;35.624;139.698;2023-02-04T04:15:12;101327.00;;;9.74;37.55
53659;BME280;41524;35.624;139.698;2023-02-04T04:20:11;101329.00;;;9.78;37.02
53659;BME280;41524;35.624;139.698;2023-02-04T04:25:10;101322.00;;;10.24;37.34
53659;BME280;41524;35.624;139.698;2023-02-04T04:30:12;101309.00;;;10.75;37.60
53659;BME280;41524;35.624;139.698;2023-02-04T04:35:21;101296.00;;;10.76;35.52
53659;BME280;41524;35.624;139.698;2023-02-04T04:40:17;101299.00;;;9.90;37.06
53659;BME280;41524;35.624;139.698;2023-02-04T04:45:17;101291.00;;;10.09;36.68
53659;BME280;41524;35.624;139.698;2023-02-04T04:50:11;101294.00;;;10.50;36.96
53659;BME280;41524;35.624;139.698;2023-02-04T04:55:16;101286.00;;;9.96;36.86
53659;BME280;41524;35.624;139.698;2023-02-04T05:00:18;101277.00;;;11.20;37.40
53659;BME280;41524;35.624;139.698;2023-02-04T05:05:16;101281.00;;;9.69;38.22
53659;BME280;41524;35.624;139.698;2023-02-04T05:10:11;101279.00;;;9.45;38.76
53659;BME280;41524;35.624;139.698;2023-02-04T05:15:16;101282.00;;;10.40;38.63
53659;BME280;41524;35.624;139.698;2023-02-04T05:20:12;101277.00;;;8.70;39.82
53659;BME280;41524;35.624;139.698;2023-02-04T05:25:12;101268.00;;;9.36;39.93
53659;BME280;41524;35.624;139.698;2023-02-04T05:30:16;101268.00;;;10.15;40.31
53659;BME280;41524;35.624;139.698;2023-02-04T05:35:17;101273.00;;;9.37;40.02
53659;BME280;41524;35.624;139.698;2023-02-04T05:40:12;101276.00;;;8.24;40.85
53659;BME280;41524;35.624;139.698;2023-02-04T05:45:15;101280.00;;;7.98;42.13
53659;BME280;41524;35.624;139.698;2023-02-04T05:50:21;101277.00;;;8.39;42.27
53659;BME280;41524;35.624;139.698;2023-02-04T05:55:18;101268.00;;;8.55;42.45
53659;BME280;41524;35.624;139.698;2023-02-04T06:00:12;101265.00;;;8.66;41.41
53659;BME280;41524;35.624;139.698;2023-02-04T06:05:10;101265.00;;;8.64;42.68
53659;BME280;41524;35.624;139.698;2023-02-04T06:10:11;101260.00;;;9.17;42.85
53659;BME280;41524;35.624;139.698;2023-02-04T06:15:16;101251.00;;;8.32;43.68
53659;BME280;41524;35.624;139.698;2023-02-04T06:20:14;101245.00;;;8.54;42.85
53659;BME280;41524;35.624;139.698;2023-02-04T06:25:11;101238.00;;;9.40;42.87
53659;BME280;41524;35.624;139.698;2023-02-04T06:30:11;101229.00;;;8.64;43.96
53659;BME280;41524;35.624;139.698;2023-02-04T06:35:11;101228.00;;;8.73;44.00
53659;BME280;41524;35.624;139.698;2023-02-04T06:40:16;101226.00;;;8.71;43.45
53659;BME280;41524;35.624;139.698;2023-02-04T06:45:17;101222.00;;;10.46;41.50
53659;BME280;41524;35.624;139.698;2023-02-04T06:50:13;101222.00;;;13.82;34.57
53659;BME280;41524;35.624;139.698;2023-02-04T06:55:11;101224.00;;;17.13;29.34
53659;BME280;41524;35.624;139.698;2023-02-04T07:00:16;101227.00;;;17.11;29.45
53659;BME280;41524;35.624;139.698;2023-02-04T07:05:15;101230.00;;;15.38;31.42
53659;BME280;41524;35.624;139.698;2023-02-04T07:10:16;101231.00;;;12.63;36.66
53659;BME280;41524;35.624;139.698;2023-02-04T07:15:15;101238.00;;;10.44;40.09
53659;BME280;41524;35.624;139.698;2023-02-04T07:20:12;101238.00;;;9.97;41.82
53659;BME280;41524;35.624;139.698;2023-02-04T07:25:11;101237.00;;;10.70;41.75
53659;BME280;41524;35.624;139.698;2023-02-04T07:30:16;101243.00;;;9.30;43.52
53659;BME280;41524;35.624;139.698;2023-02-04T07:35:15;101238.00;;;9.45;44.18
53659;BME280;41524;35.624;139.698;2023-02-04T07:40:12;101234.00;;;9.06;45.03
53659;BME280;41524;35.624;139.698;2023-02-04T07:45:11;101237.00;;;9.16;45.41
53659;BME280;41524;35.624;139.698;2023-02-04T07:50:11;101242.00;;;8.85;46.00
53659;BME280;41524;35.624;139.698;2023-02-04T07:55:18;101236.00;;;8.83;46.46
53659;BME280;41524;35.624;139.698;2023-02-04T08:00:24;101237.00;;;9.51;45.66
53659;BME280;41524;35.624;139.698;2023-02-04T08:05:15;101233.00;;;8.73;46.94
53659;BME280;41524;35.624;139.698;2023-02-04T08:10:11;101231.00;;;8.18;49.20
53659;BME280;41524;35.624;139.698;2023-02-04T08:15:15;101244.00;;;9.24;46.96
53659;BME280;41524;35.624;139.698;2023-02-04T08:20:12;101241.00;;;9.85;46.06
53659;BME280;41524;35.624;139.698;2023-02-04T08:25:18;101240.00;;;8.73;47.88
53659;BME280;41524;35.624;139.698;2023-02-04T08:30:16;101243.00;;;8.09;48.89
53659;BME280;41524;35.624;139.698;2023-02-04T08:35:11;101253.00;;;9.67;46.81
53659;BME280;41524;35.624;139.698;2023-02-04T08:40:16;101260.00;;;8.70;48.30
53659;BME280;41524;35.624;139.698;2023-02-04T08:45:15;101255.00;;;8.80;49.07
53659;BME280;41524;35.624;139.698;2023-02-04T08:50:11;101263.00;;;8.26;51.01
53659;BME280;41524;35.624;139.698;2023-02-04T08:55:12;101272.00;;;8.01;51.77
53659;BME280;41524;35.624;139.698;2023-02-04T09:00:13;101260.00;;;6.80;54.18
53659;BME280;41524;35.624;139.698;2023-02-04T09:05:11;101258.00;;;7.71;52.62
53659;BME280;41524;35.624;139.698;2023-02-04T09:10:11;101250.00;;;6.31;54.55
53659;BME280;41524;35.624;139.698;2023-02-04T09:15:11;101247.00;;;6.39;54.98
53659;BME280;41524;35.624;139.698;2023-02-04T09:20:12;101240.00;;;7.30;53.06
53659;BME280;41524;35.624;139.698;2023-02-04T09:25:11;101240.00;;;6.99;54.75
53659;BME280;41524;35.624;139.698;2023-02-04T09:30:11;101244.00;;;7.25;53.82
53659;BME280;41524;35.624;139.698;2023-02-04T09:35:16;101244.00;;;6.12;56.36
53659;BME280;41524;35.624;139.698;2023-02-04T09:40:15;101251.00;;;5.57;58.67
53659;BME280;41524;35.624;139.698;2023-02-04T09:45:16;101240.00;;;6.98;56.01
53659;BME280;41524;35.624;139.698;2023-02-04T09:50:14;101245.00;;;5.81;58.53
53659;BME280;41524;35.624;139.698;2023-02-04T09:55:18;101250.00;;;6.35;57.60
53659;BME280;41524;35.624;139.698;2023-02-04T10:00:23;101250.00;;;7.16;55.48
53659;BME280;41524;35.624;139.698;2023-02-04T10:05:15;101257.00;;;7.72;54.48
53659;BME280;41524;35.624;139.698;2023-02-04T10:10:19;101258.00;;;7.91;53.31
53659;BME280;41524;35.624;139.698;2023-02-04T10:15:14;101261.00;;;7.48;54.49
53659;BME280;41524;35.624;139.698;2023-02-04T10:20:14;101264.00;;;7.67;53.64
53659;BME280;41524;35.624;139.698;2023-02-04T10:25:19;101271.00;;;7.21;54.24
53659;BME280;41524;35.624;139.698;2023-02-04T10:30:21;101274.00;;;6.75;55.33
53659;BME280;41524;35.624;139.698;2023-02-04T10:35:15;101281.00;;;7.80;53.99
53659;BME280;41524;35.624;139.698;2023-02-04T10:40:33;101276.00;;;7.14;54.93
53659;BME280;41524;35.624;139.698;2023-02-04T10:45:23;101283.00;;;7.20;54.71
53659;BME280;41524;35.624;139.698;2023-02-04T10:50:16;101284.00;;;7.51;54.15
53659;BME280;41524;35.624;139.698;2023-02-04T10:55:15;101291.00;;;7.88;53.45
53659;BME280;41524;35.624;139.698;2023-02-04T11:00:18;101297.00;;;7.49;53.98
53659;BME280;41524;35.624;139.698;2023-02-04T11:05:14;101307.00;;;6.55;55.28
53659;BME280;41524;35.624;139.698;2023-02-04T11:10:23;101312.00;;;6.60;54.49
53659;BME280;41524;35.624;139.698;2023-02-04T11:15:46;101315.00;;;7.51;53.21
53659;BME280;41524;35.624;139.698;2023-02-04T11:20:29;101314.00;;;7.35;53.31
53659;BME280;41524;35.624;139.698;2023-02-04T11:25:48;101319.00;;;7.52;52.58
53659;BME280;41524;35.624;139.698;2023-02-04T11:30:22;101320.00;;;7.30;53.12
53659;BME280;41524;35.624;139.698;2023-02-04T11:35:28;101330.00;;;6.89;53.88
53659;BME280;41524;35.624;139.698;2023-02-04T11:40:30;101332.00;;;7.22;53.00
53659;BME280;41524;35.624;139.698;2023-02-04T11:45:25;101336.00;;;6.99;52.86
53659;BME280;41524;35.624;139.698;2023-02-04T11:50:16;101348.00;;;6.74;53.66
53659;BME280;41524;35.624;139.698;2023-02-04T11:55:20;101360.00;;;7.04;53.23
53659;BME280;41524;35.624;139.698;2023-02-04T12:00:23;101373.00;;;6.28;54.24
53659;BME280;41524;35.624;139.698;2023-02-04T12:05:13;101380.00;;;6.19;54.18
53659;BME280;41524;35.624;139.698;2023-02-04T12:10:25;101389.00;;;6.25;52.65
53659;BME280;41524;35.624;139.698;2023-02-04T12:15:21;101398.00;;;6.29;50.62
53659;BME280;41524;35.624;139.698;2023-02-04T12:20:13;101407.00;;;5.96;49.37
53659;BME280;41524;35.624;139.698;2023-02-04T12:25:13;101408.00;;;5.65;47.90
53659;BME280;41524;35.624;139.698;2023-02-04T12:30:12;101407.00;;;4.88;46.80
53659;BME280;41524;35.624;139.698;2023-02-04T12:35:20;101407.00;;;5.01;45.72
53659;BME280;41524;35.624;139.698;2023-02-04T12:40:15;101415.00;;;5.19;44.32
53659;BME280;41524;35.624;139.698;2023-02-04T12:45:17;101420.00;;;5.94;43.29
53659;BME280;41524;35.624;139.698;2023-02-04T12:50:13;101424.00;;;5.46;41.93
53659;BME280;41524;35.624;139.698;2023-02-04T12:55:12;101440.00;;;5.35;39.25
53659;BME280;41524;35.624;139.698;2023-02-04T13:00:17;101438.00;;;5.95;37.51
53659;BME280;41524;35.624;139.698;2023-02-04T13:05:16;101441.00;;;5.11;38.02
53659;BME280;41524;35.624;139.698;2023-02-04T13:10:20;101449.00;;;5.57;37.22
53659;BME280;41524;35.624;139.698;2023-02-04T13:15:11;101451.00;;;5.76;37.70
53659;BME280;41524;35.624;139.698;2023-02-04T13:20:12;101462.00;;;6.06;36.94
53659;BME280;41524;35.624;139.698;2023-02-04T13:25:11;101471.00;;;6.01;36.70
53659;BME280;41524;35.624;139.698;2023-02-04T13:30:18;101472.00;;;6.04;36.88
53659;BME280;41524;35.624;139.698;2023-02-04T13:35:16;101476.00;;;5.33;38.22
53659;BME280;41524;35.624;139.698;2023-02-04T13:40:12;101478.00;;;5.13;37.88
53659;BME280;41524;35.624;139.698;2023-02-04T13:45:15;101487.00;;;5.88;37.50
53659;BME280;41524;35.624;139.698;2023-02-04T13:50:17;101491.00;;;5.37;37.35
53659;BME280;41524;35.624;139.698;2023-02-04T13:55:15;101491.00;;;5.33;37.77
53659;BME280;41524;35.624;139.698;2023-02-04T14:00:12;101502.00;;;4.63;37.97
53659;BME280;41524;35.624;139.698;2023-02-04T14:05:11;101511.00;;;5.06;37.81
53659;BME280;41524;35.624;139.698;2023-02-04T14:10:16;101511.00;;;5.14;37.58
53659;BME280;41524;35.624;139.698;2023-02-04T14:15:20;101522.00;;;5.31;37.69
53659;BME280;41524;35.624;139.698;2023-02-04T14:20:11;101527.00;;;4.61;38.17
53659;BME280;41524;35.624;139.698;2023-02-04T14:25:15;101535.00;;;4.22;38.56
53659;BME280;41524;35.624;139.698;2023-02-04T14:30:17;101542.00;;;3.85;39.44
53659;BME280;41524;35.624;139.698;2023-02-04T14:35:13;101545.00;;;4.42;39.28
53659;BME280;41524;35.624;139.698;2023-02-04T14:40:14;101543.00;;;4.28;39.12
53659;BME280;41524;35.624;139.698;2023-02-04T14:45:13;101531.00;;;4.08;39.51
53659;BME280;41524;35.624;139.698;2023-02-04T14:50:17;101535.00;;;4.38;39.23
53659;BME280;41524;35.624;139.698;2023-02-04T14:55:15;101530.00;;;4.52;39.13
53659;BME280;41524;35.624;139.698;2023-02-04T15:00:16;101536.00;;;4.05;39.58
53659;BME280;41524;35.624;139.698;2023-02-04T15:05:12;101536.00;;;4.48;39.23
53659;BME280;41524;35.624;139.698;2023-02-04T15:10:12;101538.00;;;3.90;40.09
53659;BME280;41524;35.624;139.698;2023-02-04T15:15:11;101540.00;;;4.14;39.83
53659;BME280;41524;35.624;139.698;2023-02-04T15:20:18;101542.00;;;4.68;38.98
53659;BME280;41524;35.624;139.698;2023-02-04T15:25:12;101535.00;;;4.27;39.58
53659;BME280;41524;35.624;139.698;2023-02-04T15:30:12;101536.00;;;4.31;39.25
53659;BME280;41524;35.624;139.698;2023-02-04T15:35:11;101543.00;;;4.51;39.20
53659;BME280;41524;35.624;139.698;2023-02-04T15:40:13;101544.00;;;3.92;39.75
53659;BME280;41524;35.624;139.698;2023-02-04T15:45:15;101548.00;;;4.25;39.79
53659;BME280;41524;35.624;139.698;2023-02-04T15:50:15;101554.00;;;4.50;39.33
53659;BME280;41524;35.624;139.698;2023-02-04T15:55:12;101550.00;;;4.23;39.55
53659;BME280;41524;35.624;139.698;2023-02-04T16:00:11;101549.00;;;3.91;40.14
53659;BME280;41524;35.624;139.698;2023-02-04T16:05:21;101549.00;;;5.32;38.09
53659;BME280;41524;35.624;139.698;2023-02-04T16:10:11;101552.00;;;5.05;38.21
53659;BME280;41524;35.624;139.698;2023-02-04T16:15:16;101567.00;;;4.38;39.13
53659;BME280;41524;35.624;139.698;2023-02-04T16:20:14;101568.00;;;4.62;38.89
53659;BME280;41524;35.624;139.698;2023-02-04T16:25:13;101571.00;;;4.88;38.19
53659;BME280;41524;35.624;139.698;2023-02-04T16:30:12;101562.00;;;3.94;39.39
53659;BME280;41524;35.624;139.698;2023-02-04T16:35:11;101581.00;;;4.95;38.53
53659;BME280;41524;35.624;139.698;2023-02-04T16:40:11;101591.00;;;4.99;38.65
53659;BME280;41524;35.624;139.698;2023-02-04T16:45:14;101594.00;;;4.85;38.85
53659;BME280;41524;35.624;139.698;2023-02-04T16:50:12;101597.00;;;4.35;39.33
53659;BME280;41524;35.624;139.698;2023-02-04T16:55:11;101615.00;;;3.76;40.24
53659;BME280;41524;35.624;139.698;2023-02-04T17:00:13;101625.00;;;3.49;40.77
53659;BME280;41524;35.624;139.698;2023-02-04T17:05:14;101619.00;;;4.12;40.08
53659;BME280;41524;35.624;139.698;2023-02-04T17:10:11;101630.00;;;3.37;40.72
53659;BME280;41524;35.624;139.698;2023-02-04T17:15:16;101628.00;;;3.62;40.23
53659;BME280;41524;35.624;139.698;2023-02-04T17:20:11;101636.00;;;4.00;40.25
53659;BME280;41524;35.624;139.698;2023-02-04T17:25:16;101642.00;;;3.18;41.66
53659;BME280;41524;35.624;139.698;2023-02-04T17:30:14;101649.00;;;5.03;38.71
53659;BME280;41524;35.624;139.698;2023-02-04T17:35:17;101658.00;;;3.94;40.36
53659;BME280;41524;35.624;139.698;2023-02-04T17:40:12;101668.00;;;5.33;38.43
53659;BME280;41524;35.624;139.698;2023-02-04T17:45:12;101672.00;;;4.07;39.65
53659;BME280;41524;35.624;139.698;2023-02-04T17:50:11;101676.00;;;3.92;39.92
53659;BME280;41524;35.624;139.698;2023-02-04T17:55:17;101680.00;;;4.82;39.06
53659;BME280;41524;35.624;139.698;2023-02-04T18:00:22;101686.00;;;4.73;39.09
53659;BME280;41524;35.624;139.698;2023-02-04T18:05:14;101688.00;;;3.76;40.32
53659;BME280;41524;35.624;139.698;2023-02-04T18:10:25;101695.00;;;3.40;40.89
53659;BME280;41524;35.624;139.698;2023-02-04T18:15:25;101699.00;;;3.57;41.00
53659;BME280;41524;35.624;139.698;2023-02-04T18:25:15;101709.00;;;3.65;41.10
53659;BME280;41524;35.624;139.698;2023-02-04T18:30:20;101704.00;;;3.46;41.77
53659;BME280;41524;35.624;139.698;2023-02-04T18:35:41;101702.00;;;3.66;41.28
53659;BME280;41524;35.624;139.698;2023-02-04T18:40:22;101703.00;;;3.10;41.72
53659;BME280;41524;35.624;139.698;2023-02-04T18:45:21;101695.00;;;3.43;41.34
53659;BME280;41524;35.624;139.698;2023-02-04T18:50:25;101695.00;;;3.56;40.72
53659;BME280;41524;35.624;139.698;2023-02-04T18:55:21;101720.00;;;3.47;40.57
53659;BME280;41524;35.624;139.698;2023-02-04T19:00:33;101752.00;;;2.47;42.60
53659;BME280;41524;35.624;139.698;2023-02-04T19:05:24;101758.00;;;2.56;43.52
53659;BME280;41524;35.624;139.698;2023-02-04T19:10:27;101750.00;;;3.91;40.54
53659;BME280;41524;35.624;139.698;2023-02-04T19:15:32;101756.00;;;4.24;39.48
53659;BME280;41524;35.624;139.698;2023-02-04T19:20:19;101758.00;;;3.30;41.15
53659;BME280;41524;35.624;139.698;2023-02-04T19:25:28;101771.00;;;3.24;41.25
53659;BME280;41524;35.624;139.698;2023-02-04T19:30:43;101783.00;;;3.88;40.78
53659;BME280;41524;35.624;139.698;2023-02-04T19:35:19;101789.00;;;3.47;41.06
53659;BME280;41524;35.624;139.698;2023-02-04T19:40:26;101793.00;;;4.29;39.39
53659;BME280;41524;35.624;139.698;2023-02-04T19:45:16;101799.00;;;4.32;39.72
53659;BME280;41524;35.624;139.698;2023-02-04T19:50:22;101797.00;;;4.15;40.14
53659;BME280;41524;35.624;139.698;2023-02-04T19:55:30;101811.00;;;3.13;41.09
53659;BME280;41524;35.624;139.698;2023-02-04T20:00:38;101826.00;;;4.12;39.84
53659;BME280;41524;35.624;139.698;2023-02-04T20:05:17;101846.00;;;3.75;40.77
53659;BME280;41524;35.624;139.698;2023-02-04T20:10:23;101853.00;;;2.42;42.63
53659;BME280;41524;35.624;139.698;2023-02-04T20:15:17;101850.00;;;3.97;40.19
53659;BME280;41524;35.624;139.698;2023-02-04T20:20:28;101864.00;;;3.11;41.55
53659;BME280;41524;35.624;139.698;2023-02-04T20:26:11;101876.00;;;2.59;43.05
53659;BME280;41524;35.624;139.698;2023-02-04T20:30:25;101878.00;;;3.06;41.75
53659;BME280;41524;35.624;139.698;2023-02-04T20:36:23;101887.00;;;3.73;41.20
53659;BME280;41524;35.624;139.698;2023-02-04T20:40:19;101902.00;;;3.65;39.77
53659;BME280;41524;35.624;139.698;2023-02-04T20:45:22;101914.00;;;3.34;40.61
53659;BME280;41524;35.624;139.698;2023-02-04T20:50:45;101924.00;;;3.72;39.66
53659;BME280;41524;35.624;139.698;2023-02-04T20:55:23;101938.00;;;3.66;39.96
53659;BME280;41524;35.624;139.698;2023-02-04T21:00:22;101947.00;;;3.62;38.67
53659;BME280;41524;35.624;139.698;2023-02-04T21:05:22;101954.00;;;4.39;38.17
53659;BME280;41524;35.624;139.698;2023-02-04T21:10:11;101961.00;;;2.54;40.83
53659;BME280;41524;35.624;139.698;2023-02-04T21:15:15;101968.00;;;3.32;39.61
53659;BME280;41524;35.624;139.698;2023-02-04T21:20:18;101976.00;;;3.61;39.15
53659;BME280;41524;35.624;139.698;2023-02-04T21:25:12;101990.00;;;2.82;40.24
53659;BME280;41524;35.624;139.698;2023-02-04T21:30:21;102000.00;;;1.39;42.18
53659;BME280;41524;35.624;139.698;2023-02-04T21:35:10;102000.00;;;1.95;41.76
53659;BME280;41524;35.624;139.698;2023-02-04T21:40:12;102010.00;;;2.51;41.56
53659;BME280;41524;35.624;139.698;2023-02-04T21:45:17;102009.00;;;2.00;42.00
53659;BME280;41524;35.624;139.698;2023-02-04T21:50:12;102008.00;;;2.44;41.95
53659;BME280;41524;35.624;139.698;2023-02-04T21:55:13;102015.00;;;3.02;41.28
53659;BME280;41524;35.624;139.698;2023-02-04T22:00:12;102019.00;;;3.56;40.95
53659;BME280;41524;35.624;139.698;2023-02-04T22:05:12;102024.00;;;2.51;42.54
53659;BME280;41524;35.624;139.698;2023-02-04T22:10:13;102028.00;;;2.25;43.65
53659;BME280;41524;35.624;139.698;2023-02-04T22:15:12;102044.00;;;3.07;42.21
53659;BME280;41524;35.624;139.698;2023-02-04T22:20:12;102055.00;;;3.35;41.63
53659;BME280;41524;35.624;139.698;2023-02-04T22:25:15;102062.00;;;3.48;41.84
53659;BME280;41524;35.624;139.698;2023-02-04T22:30:13;102072.00;;;3.45;41.12
53659;BME280;41524;35.624;139.698;2023-02-04T22:35:11;102075.00;;;2.88;42.03
53659;BME280;41524;35.624;139.698;2023-02-04T22:40:15;102086.00;;;3.66;40.74
53659;BME280;41524;35.624;139.698;2023-02-04T22:45:14;102096.00;;;4.77;38.87
53659;BME280;41524;35.624;139.698;2023-02-04T22:50:14;102100.00;;;4.86;39.00
53659;BME280;41524;35.624;139.698;2023-02-04T22:55:12;102104.00;;;5.68;37.36
53659;BME280;41524;35.624;139.698;2023-02-04T23:00:14;102104.00;;;4.89;37.74
53659;BME280;41524;35.624;139.698;2023-02-04T23:05:13;102102.00;;;6.27;35.95
53659;BME280;41524;35.624;139.698;2023-02-04T23:10:11;102111.00;;;4.30;38.37
53659;BME280;41524;35.624;139.698;2023-02-04T23:15:17;102125.00;;;4.62;36.97
53659;BME280;41524;35.624;139.698;2023-02-04T23:20:11;102137.00;;;4.20;37.23
53659;BME280;41524;35.624;139.698;2023-02-04T23:25:16;102134.00;;;7.29;33.20
53659;BME280;41524;35.624;139.698;2023-02-04T23:30:16;102131.00;;;12.79;25.55
53659;BME280;41524;35.624;139.698;2023-02-04T23:35:15;102137.00;;;14.46;23.47
53659;BME280;41524;35.624;139.698;2023-02-04T23:40:15;102143.00;;;12.88;24.05
53659;BME280;41524;35.624;139.698;2023-02-04T23:45:11;102149.00;;;13.33;21.55
53659;BME280;41524;35.624;139.698;2023-02-04T23:50:17;102153.00;;;11.67;22.46
53659;BME280;41524;35.624;139.698;2023-02-04T23:55:17;102154.00;;;11.34;22.96
